createdAt,value
2023-02-05T00:01:31.023Z,2.60
2023-02-05T00:03:57.646Z,3.37
2023-02-05T00:06:24.363Z,3.37
2023-02-05T00:08:51.064Z,3.30
2023-02-05T00:11:17.995Z,3.43
2023-02-05T00:13:44.719Z,4.27
2023-02-05T00:16:14.113Z,3.23
2023-02-05T00:18:40.849Z,3.43
2023-02-05T00:21:08.250Z,3.93
2023-02-05T00:23:35.947Z,3.60
2023-02-05T00:26:04.170Z,3.50
2023-02-05T00:28:35.015Z,3.73
2023-02-05T00:31:10.851Z,3.37
2023-02-05T00:33:38.032Z,3.57
2023-02-05T00:36:05.742Z,4.93
2023-02-05T00:38:32.720Z,4.00
2023-02-05T00:40:59.708Z,3.73
2023-02-05T00:43:26.330Z,4.87
2023-02-05T00:45:52.989Z,4.87
2023-02-05T00:48:19.751Z,2.60
2023-02-05T00:50:49.002Z,3.20
2023-02-05T00:53:15.936Z,4.37
2023-02-05T00:55:42.566Z,3.23
2023-02-05T00:58:09.243Z,3.43
2023-02-05T01:00:35.869Z,3.67
2023-02-05T01:03:02.586Z,3.70
2023-02-05T01:05:30.669Z,3.37
2023-02-05T01:07:57.826Z,2.23
2023-02-05T01:10:24.829Z,2.30
2023-02-05T01:12:51.472Z,2.93
2023-02-05T01:15:18.815Z,2.40
2023-02-05T01:17:45.872Z,2.60
2023-02-05T01:20:14.719Z,2.73
2023-02-05T01:22:41.919Z,3.87
2023-02-05T01:25:09.547Z,3.27
2023-02-05T01:27:40.153Z,2.43
2023-02-05T01:30:08.249Z,3.40
2023-02-05T01:32:35.553Z,2.53
2023-02-05T01:35:02.283Z,2.70
2023-02-05T01:37:28.954Z,2.47
2023-02-05T01:39:56.959Z,4.70
2023-02-05T01:42:27.186Z,2.30
2023-02-05T01:45:22.092Z,3.63
2023-02-05T01:47:51.065Z,3.73
2023-02-05T01:50:22.342Z,2.97
2023-02-05T01:52:49.837Z,2.77
2023-02-05T01:55:16.999Z,3.27
2023-02-05T01:57:43.987Z,2.37
2023-02-05T02:00:11.208Z,2.50
2023-02-05T02:02:44.837Z,2.37
2023-02-05T02:05:14.503Z,2.57
2023-02-05T02:07:41.572Z,3.90
2023-02-05T02:10:10.667Z,2.73
2023-02-05T02:12:41.569Z,2.87
2023-02-05T02:15:15.867Z,3.00
2023-02-05T02:17:45.454Z,2.70
2023-02-05T02:20:17.322Z,3.00
2023-02-05T02:22:55.574Z,4.53
2023-02-05T02:25:43.814Z,2.43
2023-02-05T02:28:38.943Z,4.23
2023-02-05T02:31:10.983Z,3.00
2023-02-05T02:34:42.445Z,2.23
2023-02-05T02:37:13.943Z,3.80
2023-02-05T02:40:04.662Z,3.90
2023-02-05T02:42:38.332Z,3.23
2023-02-05T02:45:08.196Z,2.70
2023-02-05T02:47:40.503Z,2.90
2023-02-05T02:50:25.017Z,2.57
2023-02-05T02:52:53.828Z,3.40
2023-02-05T02:55:22.998Z,1.87
2023-02-05T02:57:52.510Z,2.60
2023-02-05T03:00:25.599Z,2.00
2023-02-05T03:03:00.548Z,3.17
2023-02-05T03:05:29.681Z,3.43
2023-02-05T03:08:05.366Z,1.87
2023-02-05T03:10:50.243Z,2.00
2023-02-05T03:13:19.403Z,2.10
2023-02-05T03:15:51.546Z,2.87
2023-02-05T03:18:19.417Z,1.90
2023-02-05T03:20:51.921Z,3.33
2023-02-05T03:23:19.060Z,2.27
2023-02-05T03:25:45.739Z,3.80
2023-02-05T03:28:14.232Z,2.17
2023-02-05T03:31:06.881Z,3.13
2023-02-05T03:33:57.889Z,2.63
2023-02-05T03:36:58.960Z,4.53
2023-02-05T03:39:51.347Z,2.43
2023-02-05T03:42:45.353Z,3.57
2023-02-05T03:45:33.429Z,2.50
2023-02-05T03:48:16.145Z,4.80
2023-02-05T03:51:03.519Z,3.90
2023-02-05T03:54:00.263Z,2.57
2023-02-05T03:56:51.805Z,5.13
2023-02-05T03:59:20.405Z,3.83
2023-02-05T04:01:47.554Z,3.93
2023-02-05T04:04:15.396Z,2.07
2023-02-05T04:06:42.628Z,2.60
2023-02-05T04:09:11.019Z,1.93
2023-02-05T04:11:38.842Z,4.00
2023-02-05T04:14:05.749Z,4.07
2023-02-05T04:16:33.442Z,2.23
2023-02-05T04:19:00.766Z,2.70
2023-02-05T04:21:27.832Z,2.37
2023-02-05T04:23:54.817Z,2.87
2023-02-05T04:26:21.591Z,3.60
2023-02-05T04:28:58.248Z,3.67
2023-02-05T04:31:25.091Z,3.03
2023-02-05T04:33:52.290Z,2.63
2023-02-05T04:36:19.360Z,5.13
2023-02-05T04:38:46.020Z,2.00
2023-02-05T04:41:13.801Z,2.57
2023-02-05T04:43:40.487Z,2.10
2023-02-05T04:46:09.058Z,3.07
2023-02-05T04:48:36.887Z,2.60
2023-02-05T04:51:10.726Z,3.13
2023-02-05T04:53:39.581Z,5.53
2023-02-05T04:56:15.355Z,2.93
2023-02-05T04:58:42.308Z,2.47
2023-02-05T05:01:20.746Z,2.60
2023-02-05T05:03:47.956Z,3.53
2023-02-05T05:06:15.686Z,3.17
2023-02-05T05:08:42.596Z,2.50
2023-02-05T05:11:12.145Z,2.30
2023-02-05T05:13:39.365Z,4.77
2023-02-05T05:16:07.422Z,4.00
2023-02-05T05:18:34.991Z,3.10
2023-02-05T05:21:02.713Z,2.87
2023-02-05T05:23:30.012Z,3.07
2023-02-05T05:25:56.608Z,2.87
2023-02-05T05:28:23.275Z,3.77
2023-02-05T05:30:50.070Z,5.00
2023-02-05T05:33:17.049Z,3.73
2023-02-05T05:35:45.759Z,2.77
2023-02-05T05:38:12.593Z,3.03
2023-02-05T05:40:58.277Z,3.17
2023-02-05T05:43:43.666Z,1.97
2023-02-05T05:46:10.322Z,3.07
2023-02-05T05:48:36.983Z,2.20
2023-02-05T05:51:03.938Z,3.13
2023-02-05T05:53:31.168Z,2.87
2023-02-05T05:55:57.821Z,2.90
2023-02-05T05:58:24.791Z,3.67
2023-02-05T06:00:51.416Z,4.50
2023-02-05T06:03:18.059Z,4.50
2023-02-05T06:05:44.721Z,3.17
2023-02-05T06:08:11.347Z,4.30
2023-02-05T06:10:37.944Z,2.80
2023-02-05T06:13:04.559Z,3.03
2023-02-05T06:15:31.150Z,3.77
2023-02-05T06:17:57.782Z,5.13
2023-02-05T06:20:24.461Z,3.27
2023-02-05T06:22:51.288Z,2.53
2023-02-05T06:25:18.134Z,4.80
2023-02-05T06:27:44.817Z,2.67
2023-02-05T06:30:12.331Z,3.57
2023-02-05T06:32:38.956Z,3.50
2023-02-05T06:35:06.067Z,4.97
2023-02-05T06:37:47.243Z,4.37
2023-02-05T06:40:17.834Z,2.43
2023-02-05T06:42:45.177Z,3.60
2023-02-05T06:45:12.019Z,3.10
2023-02-05T06:47:38.691Z,2.50
2023-02-05T06:50:06.717Z,2.83
2023-02-05T06:52:33.393Z,3.07
2023-02-05T06:55:00.005Z,3.17
2023-02-05T06:57:26.634Z,3.40
2023-02-05T06:59:53.252Z,3.70
2023-02-05T07:02:20.220Z,3.43
2023-02-05T07:04:47.229Z,4.83
2023-02-05T07:07:15.741Z,5.20
2023-02-05T07:09:43.484Z,3.17
2023-02-05T07:12:10.165Z,2.90
2023-02-05T07:14:41.039Z,2.70
2023-02-05T07:17:08.240Z,4.63
2023-02-05T07:19:35.962Z,4.60
2023-02-05T07:22:02.593Z,3.00
2023-02-05T07:24:29.219Z,3.47
2023-02-05T07:26:55.824Z,4.03
2023-02-05T07:29:22.470Z,2.83
2023-02-05T07:31:50.152Z,3.93
2023-02-05T07:34:16.798Z,3.57
2023-02-05T07:36:43.541Z,3.37
2023-02-05T07:39:10.198Z,4.30
2023-02-05T07:41:36.894Z,4.87
2023-02-05T07:44:05.062Z,2.77
2023-02-05T07:46:31.944Z,4.80
2023-02-05T07:49:00.032Z,4.57
2023-02-05T07:51:26.936Z,5.23
2023-02-05T07:53:53.943Z,3.37
2023-02-05T07:56:21.664Z,5.27
2023-02-05T07:58:48.449Z,3.77
2023-02-05T08:01:15.275Z,6.60
2023-02-05T08:03:41.993Z,4.17
2023-02-05T08:06:11.764Z,4.03
2023-02-05T08:08:38.435Z,5.73
2023-02-05T08:11:06.627Z,6.37
2023-02-05T08:13:34.027Z,3.57
2023-02-05T08:16:06.943Z,5.40
2023-02-05T08:18:33.877Z,5.23
2023-02-05T08:21:00.463Z,7.13
2023-02-05T08:23:27.195Z,5.50
2023-02-05T08:25:58.775Z,4.30
2023-02-05T08:28:29.178Z,3.67
2023-02-05T08:30:59.306Z,4.50
2023-02-05T08:33:26.045Z,4.07
2023-02-05T08:35:52.747Z,4.87
2023-02-05T08:38:19.381Z,4.60
2023-02-05T08:40:46.136Z,4.07
2023-02-05T08:43:13.045Z,5.13
2023-02-05T08:45:40.152Z,6.50
2023-02-05T08:48:08.950Z,5.53
2023-02-05T08:50:35.541Z,6.30
2023-02-05T08:53:02.209Z,3.90
2023-02-05T08:55:28.883Z,5.00
2023-02-05T08:57:55.574Z,3.10
2023-02-05T09:00:22.536Z,5.00
2023-02-05T09:02:49.200Z,3.87
2023-02-05T09:05:15.850Z,5.37
2023-02-05T09:07:42.658Z,8.00
2023-02-05T09:10:11.789Z,5.23
2023-02-05T09:12:43.381Z,6.13
2023-02-05T09:15:10.321Z,5.17
2023-02-05T09:17:37.008Z,8.67
2023-02-05T09:20:06.617Z,3.53
2023-02-05T09:22:33.237Z,5.63
2023-02-05T09:24:59.844Z,5.77
2023-02-05T09:27:26.467Z,5.00
2023-02-05T09:29:53.119Z,4.47
2023-02-05T09:32:19.751Z,11.13
2023-02-05T09:34:46.422Z,6.33
2023-02-05T09:37:13.028Z,4.63
2023-02-05T09:42:35.946Z,3.37
2023-02-05T09:45:38.561Z,3.57
2023-02-05T09:48:27.503Z,7.90
2023-02-05T09:50:58.057Z,5.43
2023-02-05T09:53:32.655Z,4.67
2023-02-05T09:56:00.842Z,7.00
2023-02-05T09:58:31.796Z,3.13
2023-02-05T10:01:04.425Z,5.07
2023-02-05T10:03:47.197Z,4.37
2023-02-05T10:06:49.768Z,3.90
2023-02-05T10:09:31.749Z,7.37
2023-02-05T10:12:17.158Z,7.03
2023-02-05T10:15:30.239Z,4.80
2023-02-05T10:18:08.875Z,9.77
2023-02-05T10:20:50.469Z,10.77
2023-02-05T10:23:28.580Z,7.47
2023-02-05T10:26:12.117Z,7.10
2023-02-05T10:29:09.205Z,4.23
2023-02-05T10:31:59.389Z,4.70
2023-02-05T10:34:57.962Z,6.20
2023-02-05T10:37:34.086Z,10.33
2023-02-05T10:40:01.371Z,4.63
2023-02-05T10:42:38.024Z,4.27
2023-02-05T10:45:22.092Z,5.87
2023-02-05T10:48:22.509Z,6.70
2023-02-05T10:50:59.495Z,4.30
2023-02-05T10:53:28.031Z,5.70
2023-02-05T10:55:55.113Z,12.70
2023-02-05T10:58:46.339Z,8.93
2023-02-05T11:01:17.486Z,15.60
2023-02-05T11:03:56.591Z,9.33
2023-02-05T11:06:27.338Z,4.00
2023-02-05T11:08:54.233Z,3.00
2023-02-05T11:11:29.589Z,7.00
2023-02-05T11:14:06.008Z,8.40
2023-02-05T11:16:43.206Z,4.57
2023-02-05T11:19:36.651Z,5.37
2023-02-05T11:22:05.013Z,5.23
2023-02-05T11:24:33.367Z,5.47
2023-02-05T11:27:17.818Z,4.43
2023-02-05T11:29:44.478Z,4.60
2023-02-05T11:32:19.856Z,9.17
2023-02-05T11:34:46.836Z,4.47
2023-02-05T11:37:17.400Z,8.10
2023-02-05T11:39:47.041Z,5.13
2023-02-05T11:42:21.284Z,4.67
2023-02-05T11:45:01.826Z,4.00
2023-02-05T11:47:34.302Z,4.87
2023-02-05T11:50:02.266Z,3.30
2023-02-05T11:52:36.387Z,4.67
2023-02-05T11:55:04.484Z,4.57
2023-02-05T11:57:41.853Z,4.40
2023-02-05T12:00:08.508Z,5.80
2023-02-05T12:02:39.768Z,5.10
2023-02-05T12:05:12.315Z,3.97
2023-02-05T12:07:43.079Z,3.23
2023-02-05T12:10:28.805Z,5.40
2023-02-05T12:13:22.904Z,4.27
2023-02-05T12:16:18.956Z,4.37
2023-02-05T12:19:14.312Z,6.53
2023-02-05T12:21:48.626Z,6.60
2023-02-05T12:24:30.797Z,8.30
2023-02-05T12:27:30.063Z,4.70
2023-02-05T12:30:08.652Z,4.60
2023-02-05T12:33:08.133Z,4.63
2023-02-05T12:36:01.067Z,5.70
2023-02-05T12:38:48.044Z,10.20
2023-02-05T12:41:30.754Z,5.77
2023-02-05T12:44:19.953Z,6.07
2023-02-05T12:47:14.020Z,4.03
2023-02-05T12:50:31.796Z,5.93
2023-02-05T12:53:41.924Z,4.83
2023-02-05T12:56:31.346Z,6.97
2023-02-05T12:59:06.768Z,3.73
2023-02-05T13:01:46.781Z,4.27
2023-02-05T13:04:26.959Z,6.47
2023-02-05T13:07:05.512Z,5.93
2023-02-05T13:09:50.970Z,5.83
2023-02-05T13:12:23.240Z,3.93
2023-02-05T13:15:02.293Z,9.33
2023-02-05T13:17:33.890Z,6.10
2023-02-05T13:20:08.242Z,5.80
2023-02-05T13:23:02.535Z,6.33
2023-02-05T13:25:56.372Z,5.13
2023-02-05T13:28:41.509Z,31.80
2023-02-05T13:31:38.537Z,4.63
2023-02-05T13:34:07.680Z,8.87
2023-02-05T13:36:56.608Z,6.37
2023-02-05T13:39:33.747Z,7.20
2023-02-05T13:42:22.634Z,6.17
2023-02-05T13:45:31.682Z,4.80
2023-02-05T13:48:20.375Z,7.47
2023-02-05T13:51:09.791Z,13.03
2023-02-05T13:54:01.075Z,5.20
2023-02-05T13:56:36.756Z,4.13
2023-02-05T13:59:18.650Z,5.53
2023-02-05T14:01:58.115Z,5.60
2023-02-05T14:04:36.590Z,4.87
2023-02-05T14:07:08.414Z,6.60
2023-02-05T14:09:41.857Z,8.97
2023-02-05T14:12:22.898Z,5.53
2023-02-05T14:15:19.634Z,7.07
2023-02-05T14:17:46.452Z,7.83
2023-02-05T14:20:25.354Z,5.70
2023-02-05T14:22:52.822Z,4.03
2023-02-05T14:25:45.787Z,5.03
2023-02-05T14:28:15.537Z,5.57
2023-02-05T14:30:47.591Z,5.50
2023-02-05T14:33:42.702Z,6.33
2023-02-05T14:36:15.872Z,6.50
2023-02-05T14:38:45.612Z,9.37
2023-02-05T14:41:15.690Z,9.40
2023-02-05T14:43:46.477Z,6.43
2023-02-05T14:46:32.506Z,7.67
2023-02-05T14:49:02.289Z,6.97
2023-02-05T14:51:35.057Z,7.57
2023-02-05T14:54:06.299Z,7.80
2023-02-05T14:57:15.327Z,6.90
2023-02-05T15:00:17.854Z,6.17
2023-02-05T15:03:06.703Z,7.57
2023-02-05T15:05:54.232Z,6.17
2023-02-05T15:08:45.484Z,4.10
2023-02-05T15:11:26.252Z,7.03
2023-02-05T15:14:18.390Z,4.50
2023-02-05T15:16:45.635Z,7.73
2023-02-05T15:19:15.295Z,9.60
2023-02-05T15:21:51.465Z,9.23
2023-02-05T15:24:23.838Z,8.13
2023-02-05T15:26:56.564Z,8.57
2023-02-05T15:29:31.322Z,5.30
2023-02-05T15:32:04.855Z,7.90
2023-02-05T15:34:37.359Z,8.33
2023-02-05T15:37:23.125Z,10.17
2023-02-05T15:39:54.927Z,9.67
2023-02-05T15:42:36.476Z,6.20
2023-02-05T15:45:21.376Z,5.47
2023-02-05T15:48:01.925Z,12.07
2023-02-05T15:50:30.930Z,7.87
2023-02-05T15:52:58.599Z,7.30
2023-02-05T15:55:27.662Z,9.57
2023-02-05T15:58:00.588Z,6.93
2023-02-05T16:00:30.002Z,7.90
2023-02-05T16:03:02.355Z,5.27
2023-02-05T16:05:31.184Z,6.80
2023-02-05T16:07:59.006Z,7.53
2023-02-05T16:10:31.829Z,7.30
2023-02-05T16:13:07.177Z,18.70
2023-02-05T16:15:40.206Z,6.50
2023-02-05T16:18:17.190Z,9.80
2023-02-05T16:20:49.326Z,8.47
2023-02-05T16:23:24.773Z,8.23
2023-02-05T16:25:56.705Z,7.93
2023-02-05T16:28:28.294Z,10.63
2023-02-05T16:30:57.885Z,8.27
2023-02-05T16:33:32.654Z,9.33
2023-02-05T16:36:03.177Z,6.97
2023-02-05T16:38:29.960Z,8.60
2023-02-05T16:40:59.930Z,15.53
2023-02-05T16:43:35.469Z,9.63
2023-02-05T16:46:08.067Z,8.43
2023-02-05T16:48:49.645Z,8.97
2023-02-05T16:51:40.202Z,7.00
2023-02-05T16:54:09.840Z,9.47
2023-02-05T16:56:47.324Z,9.23
2023-02-05T16:59:20.544Z,7.43
2023-02-05T17:01:47.505Z,7.57
2023-02-05T17:04:26.632Z,9.53
2023-02-05T17:06:56.854Z,8.50
2023-02-05T17:09:35.896Z,7.83
2023-02-05T17:12:37.327Z,10.17
2023-02-05T17:15:25.012Z,9.97
2023-02-05T17:17:52.832Z,9.63
2023-02-05T17:20:21.822Z,9.90
2023-02-05T17:23:00.584Z,7.57
2023-02-05T17:25:37.870Z,9.80
2023-02-05T17:28:09.295Z,10.47
2023-02-05T17:30:36.248Z,9.00
2023-02-05T17:33:08.275Z,8.57
2023-02-05T17:35:35.014Z,12.07
2023-02-05T17:38:01.719Z,10.03
2023-02-05T17:40:28.467Z,12.07
2023-02-05T17:42:55.125Z,13.67
2023-02-05T17:45:24.655Z,17.57
2023-02-05T17:47:51.370Z,13.93
2023-02-05T17:50:19.046Z,15.37
2023-02-05T17:52:45.985Z,15.90
2023-02-05T17:55:15.787Z,18.47
2023-02-05T17:57:43.412Z,17.00
2023-02-05T18:00:25.174Z,16.00
2023-02-05T18:02:52.161Z,16.73
2023-02-05T18:05:20.200Z,17.43
2023-02-05T18:07:58.468Z,18.93
2023-02-05T18:10:33.655Z,16.23
2023-02-05T18:13:00.731Z,18.93
2023-02-05T18:15:34.354Z,18.27
2023-02-05T18:18:01.010Z,17.20
2023-02-05T18:20:27.661Z,16.60
2023-02-05T18:22:54.274Z,16.83
2023-02-05T18:25:20.852Z,17.43
2023-02-05T18:27:48.751Z,16.83
2023-02-05T18:30:15.559Z,17.43
2023-02-05T18:32:42.164Z,18.60
2023-02-05T18:35:14.170Z,18.87
2023-02-05T18:37:42.498Z,19.67
2023-02-05T18:40:10.257Z,15.43
2023-02-05T18:42:36.995Z,20.03
2023-02-05T18:45:03.908Z,17.33
2023-02-05T18:47:30.513Z,18.00
2023-02-05T18:49:57.115Z,18.90
2023-02-05T18:52:26.480Z,17.60
2023-02-05T18:54:54.129Z,18.63
2023-02-05T18:57:20.838Z,20.13
2023-02-05T18:59:48.488Z,16.90
2023-02-05T19:02:15.290Z,18.53
2023-02-05T19:04:42.286Z,19.43
2023-02-05T19:07:08.908Z,17.50
2023-02-05T19:09:35.652Z,16.53
2023-02-05T19:12:02.468Z,16.73
2023-02-05T19:14:29.127Z,19.63
2023-02-05T19:16:55.728Z,16.63
2023-02-05T19:19:25.131Z,19.20
2023-02-05T19:21:54.509Z,17.10
2023-02-05T19:24:22.289Z,15.17
2023-02-05T19:26:50.766Z,17.83
2023-02-05T19:29:19.873Z,17.43
2023-02-05T19:31:47.035Z,16.20
2023-02-05T19:34:14.412Z,17.50
2023-02-05T19:36:43.736Z,16.00
2023-02-05T19:39:13.103Z,19.80
2023-02-05T19:41:40.574Z,15.93
2023-02-05T19:44:08.754Z,19.50
2023-02-05T19:46:42.097Z,16.60
2023-02-05T19:49:16.688Z,16.30
2023-02-05T19:51:51.952Z,20.37
2023-02-05T19:54:21.359Z,17.03
2023-02-05T19:56:48.469Z,17.43
2023-02-05T19:59:16.618Z,18.17
2023-02-05T20:01:45.825Z,15.97
2023-02-05T20:04:17.156Z,15.90
2023-02-05T20:06:46.044Z,20.50
2023-02-05T20:09:14.360Z,18.37
2023-02-05T20:11:49.341Z,19.17
2023-02-05T20:14:17.122Z,20.73
2023-02-05T20:16:45.059Z,19.00
2023-02-05T20:19:14.095Z,17.67
2023-02-05T20:21:41.104Z,17.70
2023-02-05T20:24:08.358Z,18.03
2023-02-05T20:26:36.225Z,22.40
2023-02-05T20:29:31.941Z,17.63
2023-02-05T20:32:00.480Z,18.57
2023-02-05T20:34:30.492Z,20.17
2023-02-05T20:37:00.126Z,17.83
2023-02-05T20:39:28.851Z,17.00
2023-02-05T20:41:57.825Z,16.93
2023-02-05T20:44:30.233Z,19.97
2023-02-05T20:46:56.997Z,20.20
2023-02-05T20:49:23.918Z,19.10
2023-02-05T20:51:52.846Z,18.90
2023-02-05T20:54:19.764Z,16.60
2023-02-05T20:56:46.356Z,22.67
2023-02-05T20:59:12.977Z,15.80
2023-02-05T21:01:40.203Z,18.47
2023-02-05T21:04:08.474Z,23.13
2023-02-05T21:06:37.702Z,20.60
2023-02-05T21:09:05.834Z,17.00
2023-02-05T21:11:32.606Z,16.57
2023-02-05T21:13:59.419Z,17.90
2023-02-05T21:16:27.608Z,16.37
2023-02-05T21:18:55.196Z,18.53
2023-02-05T21:21:24.684Z,15.93
2023-02-05T21:23:56.544Z,16.07
2023-02-05T21:26:34.449Z,16.03
2023-02-05T21:29:06.938Z,19.03
2023-02-05T21:31:39.231Z,18.33
2023-02-05T21:34:08.749Z,17.93
2023-02-05T21:36:35.374Z,15.60
2023-02-05T21:39:02.047Z,19.50
2023-02-05T21:41:28.651Z,15.60
2023-02-05T21:43:57.263Z,20.03
2023-02-05T21:46:25.273Z,18.33
2023-02-05T21:48:54.053Z,17.13
2023-02-05T21:51:23.833Z,22.30
2023-02-05T21:53:57.275Z,18.87
2023-02-05T21:56:25.928Z,18.03
2023-02-05T21:58:52.928Z,25.63
2023-02-05T22:01:22.582Z,17.70
2023-02-05T22:03:55.539Z,17.33
2023-02-05T22:06:23.425Z,19.57
2023-02-05T22:08:50.883Z,17.27
2023-02-05T22:11:19.993Z,16.10
2023-02-05T22:13:48.733Z,16.83
2023-02-05T22:16:18.967Z,16.53
2023-02-05T22:18:46.177Z,17.03
2023-02-05T22:21:22.132Z,17.17
2023-02-05T22:23:50.566Z,17.47
2023-02-05T22:26:19.045Z,16.97
2023-02-05T22:28:46.186Z,17.53
2023-02-05T22:31:14.733Z,15.87
2023-02-05T22:33:44.093Z,15.27
2023-02-05T22:36:12.240Z,18.37
2023-02-05T22:38:42.155Z,18.60
2023-02-05T22:41:38.595Z,14.83
2023-02-05T22:44:06.859Z,15.27
2023-02-05T22:46:37.253Z,16.63
2023-02-05T22:49:04.810Z,15.33
2023-02-05T22:51:38.403Z,16.90
2023-02-05T22:54:06.058Z,16.20
2023-02-05T22:56:33.168Z,18.47
2023-02-05T22:59:02.790Z,15.77
2023-02-05T23:01:32.262Z,18.73
2023-02-05T23:03:59.383Z,16.43
2023-02-05T23:06:46.236Z,13.93
2023-02-05T23:09:17.935Z,16.00
2023-02-05T23:11:44.976Z,16.67
2023-02-05T23:14:13.806Z,13.13
2023-02-05T23:16:43.364Z,15.60
2023-02-05T23:19:13.525Z,14.83
2023-02-05T23:21:40.528Z,17.30
2023-02-05T23:24:08.207Z,14.87
2023-02-05T23:26:42.047Z,14.37
2023-02-05T23:29:11.251Z,14.67
2023-02-05T23:31:37.988Z,17.03
2023-02-05T23:34:05.443Z,15.10
2023-02-05T23:36:32.519Z,13.77
2023-02-05T23:38:59.620Z,14.47
2023-02-05T23:41:35.502Z,13.30
2023-02-05T23:44:14.979Z,13.47
2023-02-05T23:46:42.752Z,15.77
2023-02-05T23:49:09.602Z,13.83
2023-02-05T23:51:36.498Z,12.43
2023-02-05T23:54:04.075Z,14.03
2023-02-05T23:56:31.021Z,12.73
2023-02-05T23:58:58.108Z,12.17
